createdAt,value
2018-06-22T00:01:49.206Z,4.23
2018-06-22T00:03:54.157Z,3.17
2018-06-22T00:05:59.133Z,3.23
2018-06-22T00:08:04.143Z,3.67
2018-06-22T00:10:09.076Z,1.83
2018-06-22T00:12:14.037Z,3.00
2018-06-22T00:14:19.274Z,2.90
2018-06-22T00:16:24.217Z,2.73
2018-06-22T00:18:29.518Z,2.87
2018-06-22T00:20:34.726Z,2.80
2018-06-22T00:22:39.980Z,2.50
2018-06-22T00:24:44.966Z,2.87
2018-06-22T00:26:49.976Z,1.87
2018-06-22T00:28:55.031Z,2.00
2018-06-22T00:30:59.937Z,2.27
2018-06-22T00:33:04.935Z,1.83
2018-06-22T00:35:09.945Z,2.10
2018-06-22T00:37:15.300Z,2.47
2018-06-22T00:39:20.367Z,2.13
2018-06-22T00:41:25.518Z,2.10
2018-06-22T00:43:30.757Z,2.20
2018-06-22T00:45:35.735Z,2.97
2018-06-22T00:47:40.272Z,2.00
2018-06-22T00:49:45.148Z,2.07
2018-06-22T00:51:50.479Z,2.63
2018-06-22T00:54:06.464Z,2.43
2018-06-22T00:56:11.429Z,2.30
2018-06-22T00:58:16.634Z,2.10
2018-06-22T01:00:21.589Z,2.10
2018-06-22T01:02:27.182Z,2.43
2018-06-22T01:04:32.173Z,2.67
2018-06-22T01:06:37.199Z,1.93
2018-06-22T01:08:42.494Z,1.90
2018-06-22T01:10:47.514Z,2.10
2018-06-22T01:12:52.551Z,2.53
2018-06-22T01:14:57.579Z,2.30
2018-06-22T01:17:02.903Z,2.20
2018-06-22T01:19:08.677Z,2.20
2018-06-22T01:21:13.630Z,2.43
2018-06-22T01:23:18.628Z,2.20
2018-06-22T01:25:23.579Z,2.13
2018-06-22T01:27:28.546Z,3.23
2018-06-22T01:29:33.925Z,2.50
2018-06-22T01:31:38.891Z,2.13
2018-06-22T01:33:43.979Z,3.13
2018-06-22T01:35:49.027Z,2.30
2018-06-22T01:37:55.512Z,1.97
2018-06-22T01:40:00.519Z,2.50
2018-06-22T01:42:05.491Z,2.20
2018-06-22T01:44:11.318Z,1.90
2018-06-22T01:46:16.785Z,2.17
2018-06-22T01:48:22.827Z,2.40
2018-06-22T01:50:27.753Z,1.83
2018-06-22T01:52:32.818Z,2.87
2018-06-22T01:54:37.890Z,2.60
2018-06-22T01:56:43.207Z,1.97
2018-06-22T01:58:48.430Z,2.43
2018-06-22T02:00:53.427Z,2.57
2018-06-22T02:02:58.454Z,1.77
2018-06-22T02:05:04.053Z,2.57
2018-06-22T02:07:09.081Z,2.23
2018-06-22T02:09:14.368Z,2.73
2018-06-22T02:11:19.433Z,1.53
2018-06-22T02:13:24.874Z,1.90
2018-06-22T02:15:30.159Z,2.20
2018-06-22T02:17:35.163Z,1.90
2018-06-22T02:19:40.109Z,2.47
2018-06-22T02:21:45.054Z,1.93
2018-06-22T02:23:50.040Z,2.00
2018-06-22T02:25:55.960Z,2.57
2018-06-22T02:28:00.852Z,2.07
2018-06-22T02:30:06.249Z,2.57
2018-06-22T02:32:11.110Z,1.77
2018-06-22T02:34:16.328Z,2.23
2018-06-22T02:36:21.504Z,2.50
2018-06-22T02:38:26.383Z,3.90
2018-06-22T02:40:31.378Z,1.30
2018-06-22T02:42:36.647Z,1.33
2018-06-22T02:44:41.918Z,1.77
2018-06-22T02:46:46.906Z,1.70
2018-06-22T02:48:51.806Z,1.57
2018-06-22T02:50:57.261Z,2.40
2018-06-22T02:53:02.535Z,2.37
2018-06-22T02:55:07.458Z,2.10
2018-06-22T02:57:12.414Z,2.00
2018-06-22T02:59:17.669Z,2.27
2018-06-22T03:01:22.613Z,2.30
2018-06-22T03:03:27.593Z,2.03
2018-06-22T03:05:33.004Z,2.03
2018-06-22T03:07:38.283Z,2.40
2018-06-22T03:09:44.323Z,2.20
2018-06-22T03:11:49.296Z,1.90
2018-06-22T03:13:54.989Z,2.00
2018-06-22T03:16:01.531Z,2.03
2018-06-22T03:18:06.691Z,2.10
2018-06-22T03:20:11.744Z,1.50
2018-06-22T03:22:17.172Z,2.10
2018-06-22T03:24:22.143Z,1.47
2018-06-22T03:26:27.090Z,1.87
2018-06-22T03:28:32.142Z,2.23
2018-06-22T03:30:38.859Z,1.73
2018-06-22T03:32:44.583Z,1.50
2018-06-22T03:34:52.503Z,2.10
2018-06-22T03:36:58.045Z,2.37
2018-06-22T03:39:04.622Z,1.93
2018-06-22T03:41:09.608Z,2.43
2018-06-22T03:43:15.049Z,2.00
2018-06-22T03:45:20.116Z,1.70
2018-06-22T03:47:25.202Z,1.83
2018-06-22T03:49:30.188Z,2.13
2018-06-22T03:51:40.337Z,1.93
2018-06-22T03:53:45.403Z,1.20
2018-06-22T03:55:50.385Z,2.10
2018-06-22T03:57:55.375Z,1.67
2018-06-22T04:00:00.943Z,2.00
2018-06-22T04:02:06.676Z,1.70
2018-06-22T04:04:11.634Z,1.63
2018-06-22T04:06:16.591Z,1.80
2018-06-22T04:08:21.543Z,1.73
2018-06-22T04:10:26.482Z,1.50
2018-06-22T04:12:31.811Z,1.87
2018-06-22T04:14:37.186Z,1.40
2018-06-22T04:16:42.540Z,1.33
2018-06-22T04:18:47.442Z,1.50
2018-06-22T04:20:52.833Z,2.23
2018-06-22T04:22:57.790Z,1.13
2018-06-22T04:25:03.248Z,1.93
2018-06-22T04:27:08.272Z,1.57
2018-06-22T04:29:16.331Z,1.30
2018-06-22T04:31:22.382Z,1.90
2018-06-22T04:33:27.791Z,1.70
2018-06-22T04:35:33.123Z,1.50
2018-06-22T04:37:38.672Z,1.30
2018-06-22T04:39:43.695Z,1.30
2018-06-22T04:41:48.876Z,1.10
2018-06-22T04:43:53.879Z,1.40
2018-06-22T04:46:00.088Z,2.00
2018-06-22T04:48:05.216Z,1.40
2018-06-22T04:50:10.675Z,1.53
2018-06-22T04:52:15.688Z,1.13
2018-06-22T04:54:23.115Z,1.67
2018-06-22T04:56:29.229Z,1.47
2018-06-22T04:58:35.284Z,1.50
2018-06-22T05:00:41.093Z,1.77
2018-06-22T05:02:46.311Z,1.30
2018-06-22T05:04:52.799Z,1.50
2018-06-22T05:06:58.415Z,1.13
2018-06-22T05:09:04.558Z,1.23
2018-06-22T05:11:09.683Z,2.27
2018-06-22T05:13:16.305Z,1.57
2018-06-22T05:15:21.222Z,2.23
2018-06-22T05:17:33.616Z,2.00
2018-06-22T05:19:38.878Z,2.47
2018-06-22T05:21:44.219Z,2.00
2018-06-22T05:23:49.198Z,2.47
2018-06-22T05:25:54.151Z,1.60
2018-06-22T05:27:59.447Z,2.90
2018-06-22T05:30:05.011Z,1.63
2018-06-22T05:32:10.010Z,1.73
2018-06-22T05:34:15.011Z,1.60
2018-06-22T05:36:20.929Z,2.30
2018-06-22T05:38:25.912Z,2.80
2018-06-22T05:40:31.389Z,2.90
2018-06-22T05:42:36.482Z,1.70
2018-06-22T05:44:41.496Z,2.23
2018-06-22T05:46:47.698Z,2.43
2018-06-22T05:48:53.116Z,1.50
2018-06-22T05:50:58.192Z,2.00
2018-06-22T05:53:03.078Z,1.60
2018-06-22T05:55:08.598Z,2.13
2018-06-22T05:57:14.956Z,1.73
2018-06-22T05:59:22.509Z,1.97
2018-06-22T06:01:27.491Z,2.23
2018-06-22T06:03:34.026Z,4.00
2018-06-22T06:05:38.983Z,1.70
2018-06-22T06:07:44.017Z,1.70
2018-06-22T06:09:49.215Z,2.00
2018-06-22T06:11:55.024Z,2.80
2018-06-22T06:14:00.005Z,1.50
2018-06-22T06:16:05.401Z,2.80
2018-06-22T06:18:10.765Z,1.90
2018-06-22T06:20:15.785Z,1.80
2018-06-22T06:22:20.840Z,1.60
2018-06-22T06:24:25.915Z,1.47
2018-06-22T06:26:31.059Z,1.80
2018-06-22T06:28:37.386Z,1.83
2018-06-22T06:30:43.538Z,1.93
2018-06-22T06:32:49.110Z,1.80
2018-06-22T06:34:54.136Z,1.93
2018-06-22T06:36:59.142Z,2.10
2018-06-22T06:39:05.883Z,2.07
2018-06-22T06:41:11.074Z,2.43
2018-06-22T06:43:16.363Z,2.57
2018-06-22T06:45:21.386Z,2.20
2018-06-22T06:47:26.371Z,2.83
2018-06-22T06:49:31.745Z,2.30
2018-06-22T06:51:36.838Z,2.10
2018-06-22T06:53:42.592Z,2.17
2018-06-22T06:58:25.266Z,2.17
2018-06-22T07:00:31.496Z,1.90
2018-06-22T07:02:38.469Z,2.77
2018-06-22T07:04:44.029Z,2.17
2018-06-22T07:06:49.038Z,2.03
2018-06-22T07:08:54.312Z,2.47
2018-06-22T07:10:59.206Z,3.30
2018-06-22T07:13:06.146Z,2.33
2018-06-22T07:15:20.340Z,2.33
2018-06-22T07:22:24.350Z,2.50
2018-06-22T07:24:29.266Z,2.80
2018-06-22T07:26:34.570Z,2.40
2018-06-22T07:28:39.491Z,3.13
2018-06-22T07:30:44.667Z,2.70
2018-06-22T07:32:49.896Z,2.83
2018-06-22T07:34:55.813Z,2.80
2018-06-22T07:37:00.751Z,2.40
2018-06-22T07:39:09.407Z,2.10
2018-06-22T07:41:16.312Z,2.83
2018-06-22T07:43:21.165Z,2.53
2018-06-22T07:45:26.116Z,2.60
2018-06-22T07:47:31.522Z,2.60
2018-06-22T07:49:36.682Z,3.13
2018-06-22T07:51:41.612Z,2.43
2018-06-22T07:53:46.914Z,3.00
2018-06-22T07:55:51.979Z,2.60
2018-06-22T07:57:57.042Z,2.60
2018-06-22T08:00:01.987Z,2.70
2018-06-22T08:02:08.060Z,1.83
2018-06-22T08:04:13.019Z,2.10
2018-06-22T08:06:18.402Z,3.00
2018-06-22T08:08:23.375Z,2.30
2018-06-22T08:10:29.946Z,3.20
2018-06-22T08:12:37.946Z,2.33
2018-06-22T08:14:44.089Z,2.90
2018-06-22T08:16:50.073Z,2.80
2018-06-22T08:19:01.594Z,3.30
2018-06-22T08:28:38.337Z,3.17
2018-06-22T08:30:43.723Z,2.77
2018-06-22T08:32:50.996Z,2.30
2018-06-22T08:34:57.605Z,2.10
2018-06-22T08:42:09.563Z,2.27
2018-06-22T08:44:16.352Z,2.00
2018-06-22T08:46:22.530Z,2.00
2018-06-22T08:50:59.836Z,2.30
2018-06-22T08:53:04.815Z,3.50
2018-06-22T08:55:10.799Z,1.30
2018-06-22T08:57:15.776Z,1.63
2018-06-22T08:59:20.679Z,0.93
2018-06-22T09:01:25.725Z,1.70
2018-06-22T09:03:30.656Z,2.13
2018-06-22T09:05:35.591Z,1.50
2018-06-22T09:07:41.251Z,2.17
2018-06-22T09:09:46.306Z,1.77
2018-06-22T09:11:51.314Z,2.63
2018-06-22T09:13:56.650Z,2.20
2018-06-22T09:16:01.607Z,1.97
2018-06-22T09:18:07.204Z,1.97
2018-06-22T09:20:12.215Z,2.43
2018-06-22T09:22:17.127Z,2.23
2018-06-22T09:24:24.128Z,2.63
2018-06-22T09:26:29.942Z,1.77
2018-06-22T09:28:34.947Z,1.63
2018-06-22T09:30:39.919Z,2.43
2018-06-22T09:32:44.843Z,2.93
2018-06-22T09:34:49.900Z,2.47
2018-06-22T09:36:54.911Z,2.70
2018-06-22T09:39:00.195Z,2.60
2018-06-22T09:41:05.155Z,2.50
2018-06-22T09:43:10.086Z,1.90
2018-06-22T09:45:15.426Z,2.27
2018-06-22T09:47:21.197Z,2.03
2018-06-22T09:49:26.595Z,2.00
2018-06-22T09:51:31.550Z,2.30
2018-06-22T09:53:37.008Z,2.73
2018-06-22T09:55:42.608Z,1.50
2018-06-22T09:57:47.835Z,2.30
2018-06-22T09:59:52.787Z,1.90
2018-06-22T10:01:57.788Z,2.13
2018-06-22T10:04:02.823Z,1.80
2018-06-22T10:06:07.863Z,2.80
2018-06-22T10:08:12.845Z,3.60
2018-06-22T10:10:17.817Z,2.73
2018-06-22T10:12:23.318Z,1.90
2018-06-22T10:14:28.834Z,1.93
2018-06-22T10:16:34.277Z,2.43
2018-06-22T10:18:39.629Z,2.33
2018-06-22T10:20:44.893Z,2.63
2018-06-22T10:22:50.633Z,1.20
2018-06-22T10:24:55.521Z,2.10
2018-06-22T10:27:00.676Z,1.67
2018-06-22T10:29:05.779Z,2.60
2018-06-22T10:31:11.170Z,2.90
2018-06-22T10:33:16.128Z,2.60
2018-06-22T10:35:21.240Z,2.10
2018-06-22T10:37:26.482Z,1.60
2018-06-22T10:39:32.156Z,1.77
2018-06-22T10:41:37.156Z,1.90
2018-06-22T10:43:42.203Z,2.70
2018-06-22T10:45:48.035Z,2.87
2018-06-22T10:47:53.799Z,2.70
2018-06-22T10:49:58.760Z,2.40
2018-06-22T10:52:04.137Z,2.40
2018-06-22T10:54:09.083Z,3.17
2018-06-22T10:56:14.094Z,2.53
2018-06-22T10:58:19.116Z,2.97
2018-06-22T11:00:24.393Z,2.40
2018-06-22T11:02:29.548Z,2.00
2018-06-22T11:04:34.871Z,2.53
2018-06-22T11:06:40.672Z,2.93
2018-06-22T11:08:45.736Z,1.93
2018-06-22T11:10:50.721Z,3.40
2018-06-22T11:12:55.810Z,2.67
2018-06-22T11:15:00.734Z,2.80
2018-06-22T11:17:05.747Z,3.40
2018-06-22T11:19:10.718Z,1.70
2018-06-22T11:21:15.747Z,2.60
2018-06-22T11:23:20.739Z,2.47
2018-06-22T11:25:26.795Z,2.20
2018-06-22T11:30:14.345Z,3.13
2018-06-22T11:32:19.974Z,2.33
2018-06-22T11:34:24.945Z,3.03
2018-06-22T11:36:30.433Z,2.10
2018-06-22T11:41:14.691Z,1.77
2018-06-22T11:43:19.588Z,1.80
2018-06-22T11:45:24.577Z,1.73
2018-06-22T11:47:29.536Z,1.90
2018-06-22T11:49:34.495Z,1.90
2018-06-22T11:51:39.467Z,2.63
2018-06-22T11:53:44.399Z,2.93
2018-06-22T11:55:49.344Z,2.70
2018-06-22T11:57:54.605Z,1.60
2018-06-22T11:59:59.603Z,1.40
2018-06-22T12:02:04.637Z,1.87
2018-06-22T12:04:09.823Z,1.37
2018-06-22T12:06:14.813Z,1.90
2018-06-22T12:08:19.780Z,1.83
2018-06-22T12:10:24.741Z,1.60
2018-06-22T12:12:30.758Z,2.43
2018-06-22T12:14:35.700Z,1.60
2018-06-22T12:16:40.737Z,2.03
2018-06-22T12:18:45.779Z,2.23
2018-06-22T12:20:50.699Z,2.00
2018-06-22T12:22:55.757Z,1.93
2018-06-22T12:25:01.557Z,2.07
2018-06-22T12:27:06.477Z,1.80
2018-06-22T12:29:11.459Z,2.20
2018-06-22T12:31:16.420Z,1.97
2018-06-22T12:33:21.443Z,2.27
2018-06-22T12:35:26.443Z,1.90
2018-06-22T12:37:31.411Z,1.83
2018-06-22T12:39:36.463Z,1.90
2018-06-22T12:41:42.058Z,1.80
2018-06-22T12:43:46.963Z,1.80
2018-06-22T12:45:52.271Z,1.80
2018-06-22T12:47:57.595Z,2.20
2018-06-22T12:50:02.626Z,2.17
2018-06-22T12:52:07.675Z,2.07
2018-06-22T12:54:12.626Z,1.67
2018-06-22T12:56:17.603Z,1.80
2018-06-22T12:58:22.614Z,2.37
2018-06-22T13:00:27.564Z,2.33
2018-06-22T13:02:32.508Z,2.40
2018-06-22T13:04:37.447Z,2.17
2018-06-22T13:06:42.379Z,1.83
2018-06-22T13:08:47.360Z,2.33
2018-06-22T13:10:52.360Z,2.37
2018-06-22T13:12:57.375Z,2.13
2018-06-22T13:15:03.506Z,2.17
2018-06-22T13:17:08.474Z,1.60
2018-06-22T13:19:13.551Z,3.57
2018-06-22T13:21:18.630Z,3.67
2018-06-22T13:23:24.058Z,1.70
2018-06-22T13:25:29.035Z,2.10
2018-06-22T13:27:34.019Z,2.00
2018-06-22T13:29:39.148Z,2.13
2018-06-22T13:31:44.244Z,2.27
2018-06-22T13:33:49.215Z,1.87
2018-06-22T13:35:54.229Z,2.60
2018-06-22T13:37:59.149Z,2.40
2018-06-22T13:40:04.903Z,1.90
2018-06-22T13:42:09.936Z,2.20
2018-06-22T13:44:14.949Z,2.17
2018-06-22T13:46:19.959Z,2.93
2018-06-22T13:48:24.914Z,2.20
2018-06-22T13:50:29.846Z,2.73
2018-06-22T13:52:35.688Z,1.83
2018-06-22T13:54:40.733Z,2.03
2018-06-22T13:56:45.799Z,2.07
2018-06-22T13:58:50.887Z,2.13
2018-06-22T14:00:56.323Z,2.73
2018-06-22T14:03:01.287Z,1.70
2018-06-22T14:05:12.299Z,2.35
2018-06-22T14:07:17.269Z,2.67
2018-06-22T14:09:22.269Z,2.23
2018-06-22T14:11:27.244Z,2.30
2018-06-22T14:13:32.210Z,2.17
2018-06-22T14:15:37.423Z,2.37
2018-06-22T14:17:42.670Z,2.50
2018-06-22T14:19:47.755Z,3.13
2018-06-22T14:21:53.518Z,2.60
2018-06-22T14:23:59.060Z,2.03
2018-06-22T14:26:04.195Z,2.83
2018-06-22T14:28:09.455Z,2.10
2018-06-22T14:30:14.416Z,1.90
2018-06-22T14:32:19.354Z,2.30
2018-06-22T14:34:24.395Z,2.50
2018-06-22T14:36:29.474Z,2.70
2018-06-22T14:38:34.427Z,2.10
2018-06-22T14:40:39.560Z,1.60
2018-06-22T14:42:44.545Z,3.37
2018-06-22T14:44:49.556Z,1.63
2018-06-22T14:46:54.940Z,2.53
2018-06-22T14:49:00.307Z,1.87
2018-06-22T14:51:05.291Z,2.30
2018-06-22T14:53:15.685Z,2.10
2018-06-22T14:55:25.927Z,2.53
2018-06-22T14:57:35.970Z,1.40
2018-06-22T14:59:46.099Z,2.00
2018-06-22T15:01:56.165Z,2.00
2018-06-22T15:04:06.185Z,2.20
2018-06-22T15:07:18.975Z,1.93
2018-06-22T15:09:24.009Z,1.70
2018-06-22T15:11:28.900Z,2.30
2018-06-22T15:13:33.928Z,2.00
2018-06-22T15:15:39.026Z,1.60
2018-06-22T15:17:49.070Z,1.60
2018-06-22T15:19:54.079Z,2.27
2018-06-22T15:21:59.103Z,2.20
2018-06-22T15:24:04.112Z,2.30
2018-06-22T15:26:09.119Z,2.30
2018-06-22T15:28:14.116Z,2.17
2018-06-22T15:30:19.054Z,1.43
2018-06-22T15:32:24.038Z,2.33
2018-06-22T15:34:34.196Z,1.70
2018-06-22T15:36:44.367Z,1.70
2018-06-22T15:38:54.595Z,2.20
2018-06-22T15:41:04.612Z,2.30
2018-06-22T15:43:14.625Z,2.33
2018-06-22T15:45:24.739Z,3.13
2018-06-22T15:47:34.949Z,2.80
2018-06-22T15:49:44.991Z,2.67
2018-06-22T15:51:55.207Z,2.57
2018-06-22T15:54:05.523Z,2.43
2018-06-22T15:56:11.485Z,2.40
2018-06-22T15:58:16.576Z,2.73
2018-06-22T16:00:21.823Z,2.17
2018-06-22T16:02:31.933Z,3.23
2018-06-22T16:04:36.944Z,2.30
2018-06-22T16:06:41.942Z,2.67
2018-06-22T16:08:47.118Z,2.97
2018-06-22T16:10:52.153Z,2.77
2018-06-22T16:12:57.103Z,2.40
2018-06-22T16:15:07.306Z,2.83
2018-06-22T16:17:18.714Z,2.17
2018-06-22T16:19:28.893Z,2.30
2018-06-22T16:21:39.090Z,2.30
2018-06-22T16:23:49.150Z,1.53
2018-06-22T16:25:59.426Z,3.33
2018-06-22T16:28:05.311Z,2.27
2018-06-22T16:30:11.397Z,1.93
2018-06-22T16:32:16.756Z,2.27
2018-06-22T16:34:21.706Z,2.07
2018-06-22T16:36:27.863Z,2.97
2018-06-22T16:38:32.839Z,1.90
2018-06-22T16:40:37.825Z,2.17
2018-06-22T16:42:42.882Z,1.70
2018-06-22T16:44:47.787Z,1.97
2018-06-22T16:46:52.833Z,2.27
2018-06-22T16:48:57.790Z,1.77
2018-06-22T16:51:02.744Z,1.93
2018-06-22T16:53:07.729Z,2.00
2018-06-22T16:55:13.454Z,1.70
2018-06-22T16:57:18.474Z,1.83
2018-06-22T16:59:23.400Z,1.80
2018-06-22T17:01:28.479Z,2.70
2018-06-22T17:03:33.565Z,2.23
2018-06-22T17:05:38.527Z,2.07
2018-06-22T17:07:48.582Z,2.50
2018-06-22T17:09:58.643Z,2.87
2018-06-22T17:12:08.571Z,2.33
2018-06-22T17:14:18.681Z,2.70
2018-06-22T17:16:28.767Z,2.73
2018-06-22T17:18:39.047Z,2.97
2018-06-22T17:20:44.009Z,2.70
2018-06-22T17:22:48.959Z,2.40
2018-06-22T17:24:53.460Z,2.60
2018-06-22T17:26:58.270Z,2.17
2018-06-22T17:29:03.185Z,3.27
2018-06-22T17:31:08.679Z,2.93
2018-06-22T17:33:13.652Z,3.07
2018-06-22T17:35:18.671Z,2.93
2018-06-22T17:37:23.630Z,2.43
2018-06-22T17:39:28.600Z,2.83
2018-06-22T17:41:33.607Z,3.17
2018-06-22T17:43:38.625Z,2.33
2018-06-22T17:45:43.630Z,2.50
2018-06-22T17:47:48.603Z,2.80
2018-06-22T17:49:53.589Z,3.27
2018-06-22T17:51:58.580Z,3.50
2018-06-22T17:54:03.671Z,2.30
2018-06-22T17:56:08.642Z,3.07
2018-06-22T17:58:13.619Z,2.47
2018-06-22T18:00:23.702Z,2.80
2018-06-22T18:02:33.821Z,2.77
2018-06-22T18:04:43.931Z,2.93
2018-06-22T18:06:53.897Z,3.33
2018-06-22T18:08:58.930Z,2.57
2018-06-22T18:11:09.129Z,2.90
2018-06-22T18:13:14.153Z,2.30
2018-06-22T18:15:19.899Z,2.43
2018-06-22T18:17:24.957Z,2.63
2018-06-22T18:19:29.417Z,3.07
2018-06-22T18:21:34.300Z,2.97
2018-06-22T18:23:39.286Z,2.63
2018-06-22T18:25:44.298Z,3.43
2018-06-22T18:27:49.266Z,2.43
2018-06-22T18:29:54.297Z,1.57
2018-06-22T18:31:59.402Z,4.70
2018-06-22T18:34:04.478Z,2.27
2018-06-22T18:36:09.415Z,2.60
2018-06-22T18:38:14.371Z,2.87
2018-06-22T18:40:19.468Z,3.13
2018-06-22T18:42:24.465Z,3.03
2018-06-22T18:44:29.433Z,2.90
2018-06-22T18:46:34.418Z,3.70
2018-06-22T18:48:39.426Z,2.57
2018-06-22T18:50:44.472Z,3.17
2018-06-22T18:52:54.626Z,2.93
2018-06-22T18:55:04.595Z,2.37
2018-06-22T18:57:14.400Z,3.53
2018-06-22T18:59:24.838Z,2.73
2018-06-22T19:01:34.874Z,2.80
2018-06-22T19:03:46.147Z,2.70
2018-06-22T19:05:51.417Z,3.17
2018-06-22T19:07:56.428Z,2.60
2018-06-22T19:10:01.476Z,2.37
2018-06-22T19:12:06.911Z,4.03
2018-06-22T19:14:11.928Z,3.00
2018-06-22T19:16:16.979Z,3.60
2018-06-22T19:18:22.456Z,2.93
2018-06-22T19:20:27.468Z,3.77
2018-06-22T19:22:32.544Z,2.60
2018-06-22T19:24:37.485Z,3.03
2018-06-22T19:26:42.920Z,2.27
2018-06-22T19:28:47.854Z,3.57
2018-06-22T19:30:52.940Z,2.40
2018-06-22T19:32:58.218Z,2.47
2018-06-22T19:35:08.453Z,2.63
2018-06-22T19:37:13.387Z,3.00
2018-06-22T19:39:18.409Z,2.90
2018-06-22T19:41:23.415Z,2.80
2018-06-22T19:43:33.413Z,3.17
2018-06-22T19:45:43.782Z,3.57
2018-06-22T19:47:54.391Z,3.07
2018-06-22T19:50:04.454Z,3.17
2018-06-22T19:52:14.557Z,3.93
2018-06-22T19:54:19.566Z,2.70
2018-06-22T19:56:24.678Z,4.20
2018-06-22T19:58:29.657Z,4.00
2018-06-22T20:00:35.744Z,8.03
2018-06-22T20:02:40.744Z,5.10
2018-06-22T20:04:45.694Z,4.00
2018-06-22T20:06:50.811Z,6.10
2018-06-22T20:08:55.862Z,4.00
2018-06-22T20:11:00.789Z,8.23
2018-06-22T20:13:05.847Z,3.20
2018-06-22T20:15:10.859Z,11.07
2018-06-22T20:17:15.850Z,5.93
2018-06-22T20:19:20.789Z,9.07
2018-06-22T20:21:25.675Z,4.73
2018-06-22T20:23:30.634Z,9.47
2018-06-22T20:25:40.675Z,6.60
2018-06-22T20:27:45.671Z,9.23
2018-06-22T20:29:50.756Z,8.07
2018-06-22T20:31:55.807Z,7.87
2018-06-22T20:34:05.705Z,5.27
2018-06-22T20:36:15.831Z,3.77
2018-06-22T20:38:26.115Z,3.43
2018-06-22T20:42:43.662Z,3.67
2018-06-22T20:45:56.680Z,2.93
2018-06-22T20:48:06.947Z,3.60
2018-06-22T20:50:17.144Z,3.53
2018-06-22T20:52:22.192Z,3.87
2018-06-22T20:54:27.167Z,3.60
2018-06-22T20:56:32.107Z,4.00
2018-06-22T20:58:37.111Z,4.40
2018-06-22T21:00:42.367Z,5.03
2018-06-22T21:02:47.405Z,3.80
2018-06-22T21:04:52.383Z,3.83
2018-06-22T21:06:57.354Z,3.73
2018-06-22T21:09:02.260Z,4.07
2018-06-22T21:11:07.312Z,4.83
2018-06-22T21:13:12.619Z,3.43
2018-06-22T21:15:16.908Z,3.73
2018-06-22T21:17:21.782Z,3.97
2018-06-22T21:19:26.794Z,4.90
2018-06-22T21:21:37.452Z,3.80
2018-06-22T21:23:42.371Z,5.43
2018-06-22T21:25:47.486Z,4.07
2018-06-22T21:27:57.691Z,2.70
2018-06-22T21:30:07.779Z,4.03
2018-06-22T21:32:18.062Z,4.13
2018-06-22T21:34:33.834Z,3.83
2018-06-22T21:36:44.109Z,3.57
2018-06-22T21:38:54.241Z,3.40
2018-06-22T21:40:59.236Z,3.27
2018-06-22T21:43:04.190Z,4.10
2018-06-22T21:45:09.214Z,3.53
2018-06-22T21:47:14.362Z,3.97
2018-06-22T21:49:19.503Z,4.53
2018-06-22T21:51:24.504Z,4.40
2018-06-22T21:53:29.549Z,4.10
2018-06-22T21:55:34.565Z,3.83
2018-06-22T21:57:39.547Z,4.33
2018-06-22T21:59:44.553Z,4.53
2018-06-22T22:01:49.716Z,3.80
2018-06-22T22:03:54.764Z,4.13
2018-06-22T22:06:00.073Z,4.17
2018-06-22T22:08:05.051Z,5.23
2018-06-22T22:10:10.197Z,3.97
2018-06-22T22:12:15.239Z,4.70
2018-06-22T22:14:20.198Z,3.23
2018-06-22T22:16:25.163Z,4.87
2018-06-22T22:18:30.131Z,3.97
2018-06-22T22:20:35.461Z,4.10
2018-06-22T22:22:40.731Z,4.13
2018-06-22T22:24:45.751Z,4.03
2018-06-22T22:26:50.888Z,4.30
2018-06-22T22:28:56.407Z,3.70
2018-06-22T22:31:01.362Z,4.07
2018-06-22T22:33:06.319Z,3.80
2018-06-22T22:35:11.782Z,4.10
2018-06-22T22:37:17.480Z,4.53
2018-06-22T22:39:22.803Z,4.40
2018-06-22T22:41:30.303Z,3.63
2018-06-22T22:43:35.264Z,3.90
2018-06-22T22:45:40.214Z,4.80
2018-06-22T22:47:46.215Z,4.40
2018-06-22T22:49:52.779Z,3.60
2018-06-22T22:51:58.258Z,3.87
2018-06-22T22:54:03.367Z,4.83
2018-06-22T22:56:09.634Z,4.53
2018-06-22T22:58:14.787Z,3.73
2018-06-22T23:00:19.883Z,3.83
2018-06-22T23:02:25.239Z,4.73
2018-06-22T23:04:30.251Z,4.67
2018-06-22T23:06:35.777Z,3.97
2018-06-22T23:08:40.881Z,4.23
2018-06-22T23:10:46.320Z,3.77
2018-06-22T23:12:51.354Z,4.17
2018-06-22T23:14:56.376Z,3.40
2018-06-22T23:17:01.433Z,5.03
2018-06-22T23:19:06.999Z,3.63
2018-06-22T23:21:12.011Z,3.37
2018-06-22T23:23:42.733Z,4.00
2018-06-22T23:25:48.006Z,3.37
2018-06-22T23:27:53.325Z,3.90
2018-06-22T23:29:58.279Z,4.03
2018-06-22T23:32:06.681Z,3.07
2018-06-22T23:34:11.974Z,4.27
2018-06-22T23:36:17.064Z,4.20
2018-06-22T23:38:21.989Z,5.60
2018-06-22T23:40:27.116Z,4.17
2018-06-22T23:42:32.129Z,4.33
2018-06-22T23:44:37.171Z,3.67
2018-06-22T23:46:42.491Z,3.70
2018-06-22T23:48:47.444Z,4.27
2018-06-22T23:50:52.454Z,4.67
2018-06-22T23:52:57.539Z,3.70
2018-06-22T23:55:02.967Z,4.23
2018-06-22T23:57:07.926Z,3.57
2018-06-22T23:59:12.980Z,3.93
